Time;durP1;ratioP1;P1;durP2;ratioP2;P2;SDS_P1;SDS_P2;PMS_P1;PMS_P2;Temp;Humidity;BMP_temperature;BMP_pressure;BME280_temperature;BME280_humidity;BME280_pressure;Samples;Min_cycle;Max_cycle;Signal;HPM_P1;HPM_P2
2022/11/27 00:01:12;;;;;;;21.77;15.65;;;6.60;99.90;;;;;;4854450;29;19919;-70
2022/11/27 00:03:39;;;;;;;22.23;15.82;;;6.70;99.90;;;;;;4857686;29;20044;-71
2022/11/27 00:06:06;;;;;;;21.48;15.88;;;6.70;99.90;;;;;;4844873;29;20055;-71
2022/11/27 00:08:32;;;;;;;22.00;17.17;;;6.60;99.90;;;;;;4859772;29;20043;-71
2022/11/27 00:11:07;;;;;;;20.88;16.42;;;6.60;99.90;;;;;;4857387;29;20049;-71
2022/11/27 00:13:32;;;;;;;22.00;16.65;;;6.60;99.90;;;;;;4853050;29;20040;-71
2022/11/27 00:15:58;;;;;;;23.02;17.35;;;6.60;99.90;;;;;;4854959;29;20061;-71
2022/11/27 00:18:24;;;;;;;22.08;16.30;;;6.60;99.90;;;;;;4857081;29;20120;-71
2022/11/27 00:20:49;;;;;;;19.27;16.25;;;6.50;99.90;;;;;;4847613;29;20053;-71
2022/11/27 00:23:15;;;;;;;17.25;14.70;;;6.50;99.90;;;;;;4853607;29;20554;-71
2022/11/27 00:25:51;;;;;;;19.05;14.32;;;6.50;99.90;;;;;;4860247;29;20103;-71
2022/11/27 00:28:17;;;;;;;20.45;14.85;;;6.40;99.90;;;;;;4855319;29;20052;-71
2022/11/27 00:30:43;;;;;;;17.05;14.38;;;6.30;99.90;;;;;;4833609;29;20056;-71
2022/11/27 00:33:09;;;;;;;20.45;15.20;;;6.20;99.90;;;;;;4844706;29;20109;-71
2022/11/27 00:35:34;;;;;;;16.73;13.75;;;6.30;99.90;;;;;;4856705;29;20037;-71
2022/11/27 00:38:00;;;;;;;19.75;15.20;;;6.30;99.90;;;;;;4854217;29;20040;-71
2022/11/27 00:40:25;;;;;;;17.42;15.23;;;6.30;99.90;;;;;;4859863;29;20033;-71
2022/11/27 00:42:51;;;;;;;32.17;21.88;;;6.30;99.90;;;;;;4855854;29;20573;-71
2022/11/27 00:45:16;;;;;;;43.42;29.80;;;6.40;99.90;;;;;;4857416;29;20041;-71
2022/11/27 00:47:42;;;;;;;46.30;32.88;;;6.40;99.90;;;;;;4857597;29;20049;-71
2022/11/27 00:50:08;;;;;;;38.50;27.75;;;6.40;99.90;;;;;;4859476;29;20773;-71
2022/11/27 00:52:33;;;;;;;25.95;19.95;;;6.40;99.90;;;;;;4857804;29;20036;-71
2022/11/27 00:54:59;;;;;;;22.92;16.88;;;6.40;99.90;;;;;;4859414;29;20116;-71
2022/11/27 00:57:25;;;;;;;26.33;17.90;;;6.40;99.90;;;;;;4861241;29;20092;-71
2022/11/27 00:59:50;;;;;;;20.67;16.67;;;6.40;99.90;;;;;;4860624;29;20061;-70
2022/11/27 01:02:16;;;;;;;20.35;15.38;;;6.40;99.90;;;;;;4860850;29;20045;-70
2022/11/27 01:04:45;;;;;;;19.92;16.17;;;6.40;99.90;;;;;;4859875;29;20052;-70
2022/11/27 01:07:10;;;;;;;18.90;15.10;;;6.40;99.90;;;;;;4855176;29;20029;-70
2022/11/27 01:09:36;;;;;;;21.00;15.27;;;6.40;99.90;;;;;;4857282;29;20041;-70
2022/11/27 01:12:02;;;;;;;21.92;15.23;;;6.40;99.90;;;;;;4860878;29;20191;-70
2022/11/27 01:14:27;;;;;;;20.88;15.57;;;6.40;99.90;;;;;;4864296;29;20109;-71
2022/11/27 01:16:53;;;;;;;20.30;15.07;;;6.40;99.90;;;;;;4862763;29;20109;-72
2022/11/27 01:19:18;;;;;;;21.52;16.52;;;6.30;99.90;;;;;;4862413;29;20052;-72
2022/11/27 01:21:44;;;;;;;23.23;17.80;;;6.40;99.90;;;;;;4863664;29;20136;-72
2022/11/27 01:24:13;;;;;;;26.63;19.05;;;6.40;99.90;;;;;;4858320;29;20044;-72
2022/11/27 01:26:39;;;;;;;24.15;17.38;;;6.40;99.90;;;;;;4864267;29;20045;-72
2022/11/27 01:29:05;;;;;;;21.25;15.85;;;6.50;99.90;;;;;;4863189;29;20479;-72
2022/11/27 01:31:32;;;;;;;20.27;15.98;;;6.50;99.90;;;;;;4860905;29;20525;-72
2022/11/27 01:34:00;;;;;;;24.20;17.58;;;6.40;99.90;;;;;;4861821;29;20049;-72
2022/11/27 01:36:27;;;;;;;27.58;19.35;;;6.50;99.90;;;;;;4846544;29;20052;-72
2022/11/27 01:38:53;;;;;;;24.38;18.13;;;6.50;99.90;;;;;;4853746;29;20103;-72
2022/11/27 01:41:28;;;;;;;22.40;16.15;;;6.50;99.90;;;;;;4856715;29;20483;-72
2022/11/27 01:44:21;;;;;;;24.70;16.88;;;6.50;99.90;;;;;;4858734;29;20045;-71
2022/11/27 01:47:10;;;;;;;24.77;18.83;;;6.50;99.90;;;;;;4858844;29;20411;-71
2022/11/27 01:49:39;;;;;;;24.23;18.90;;;6.50;99.90;;;;;;4857226;29;20040;-72
2022/11/27 01:52:10;;;;;;;19.05;14.13;;;6.50;99.90;;;;;;4860560;29;20045;-71
2022/11/27 01:54:42;;;;;;;20.15;15.05;;;6.50;99.90;;;;;;4862248;29;20045;-71
2022/11/27 01:57:15;;;;;;;21.10;14.77;;;6.50;99.90;;;;;;4857828;29;20045;-71
2022/11/27 01:59:41;;;;;;;15.77;12.68;;;6.50;99.90;;;;;;4854239;29;20594;-71
2022/11/27 02:02:07;;;;;;;22.77;14.77;;;6.40;99.90;;;;;;4857831;29;20046;-71
2022/11/27 02:04:33;;;;;;;20.27;13.90;;;6.50;99.90;;;;;;4857972;29;20065;-71
2022/11/27 02:06:59;;;;;;;19.30;15.15;;;6.40;99.90;;;;;;4841442;29;20128;-71
2022/11/27 02:09:26;;;;;;;21.40;15.90;;;6.40;99.90;;;;;;4846938;29;20125;-71
2022/11/27 02:11:54;;;;;;;17.85;14.38;;;6.50;99.90;;;;;;4855395;29;20033;-71
2022/11/27 02:14:33;;;;;;;25.10;17.88;;;6.50;99.90;;;;;;4857994;29;20041;-71
2022/11/27 02:17:12;;;;;;;29.67;20.75;;;6.50;99.90;;;;;;4856121;29;20549;-71
2022/11/27 02:20:16;;;;;;;35.63;22.90;;;6.60;99.90;;;;;;4858822;29;20044;-71
2022/11/27 02:22:59;;;;;;;26.40;19.17;;;6.70;99.90;;;;;;4840589;29;20056;-71
2022/11/27 02:26:01;;;;;;;24.52;17.75;;;6.70;99.90;;;;;;4854190;29;20041;-71
2022/11/27 02:28:46;;;;;;;23.77;18.30;;;6.70;99.90;;;;;;4852118;29;20148;-72
2022/11/27 02:31:25;;;;;;;24.98;18.02;;;6.80;99.90;;;;;;4856959;29;20486;-71
2022/11/27 02:33:54;;;;;;;26.02;17.88;;;6.90;99.90;;;;;;4855358;29;20025;-71
2022/11/27 02:36:26;;;;;;;36.03;20.25;;;7.00;99.90;;;;;;4856284;29;20060;-71
2022/11/27 02:39:03;;;;;;;30.77;20.50;;;7.00;99.90;;;;;;4846834;29;20156;-72
2022/11/27 02:41:36;;;;;;;21.65;16.75;;;7.00;99.90;;;;;;4855164;29;20084;-71
2022/11/27 02:44:04;;;;;;;22.73;16.50;;;7.10;99.90;;;;;;4852994;29;20037;-72
2022/11/27 02:46:30;;;;;;;23.40;17.05;;;7.10;99.90;;;;;;4858445;29;20049;-72
2022/11/27 02:49:00;;;;;;;23.15;17.10;;;7.00;99.90;;;;;;4856056;29;20045;-71
2022/11/27 02:51:36;;;;;;;21.77;16.40;;;7.00;99.90;;;;;;4862284;29;20045;-71
2022/11/27 02:54:06;;;;;;;20.67;16.35;;;7.00;99.90;;;;;;4859212;29;20041;-72
2022/11/27 02:56:33;;;;;;;26.35;17.70;;;7.00;99.90;;;;;;4857984;29;20107;-71
2022/11/27 02:59:02;;;;;;;21.88;16.60;;;7.00;99.90;;;;;;4859609;29;20877;-71
2022/11/27 03:01:33;;;;;;;22.38;17.23;;;6.90;99.90;;;;;;4860397;29;20049;-71
2022/11/27 03:04:02;;;;;;;27.35;18.52;;;6.70;99.90;;;;;;4856016;29;20033;-71
2022/11/27 03:06:35;;;;;;;28.05;19.98;;;6.60;99.90;;;;;;4859055;29;20048;-71
2022/11/27 03:09:13;;;;;;;30.35;19.92;;;6.60;99.90;;;;;;4849144;29;20044;-71
2022/11/27 03:11:39;;;;;;;36.38;22.05;;;6.60;99.90;;;;;;4861130;29;20094;-71
2022/11/27 03:14:09;;;;;;;36.17;23.42;;;6.70;99.90;;;;;;4861695;29;20128;-71
2022/11/27 03:16:53;;;;;;;42.60;24.80;;;6.70;99.90;;;;;;4859205;29;20049;-71
2022/11/27 03:19:22;;;;;;;43.63;25.55;;;6.80;99.90;;;;;;4859920;29;20045;-71
2022/11/27 03:21:50;;;;;;;43.67;26.05;;;6.80;99.90;;;;;;4863680;29;20060;-71
2022/11/27 03:24:16;;;;;;;38.17;24.30;;;6.80;99.90;;;;;;4861879;29;20056;-71
2022/11/27 03:26:42;;;;;;;42.35;25.85;;;6.80;99.90;;;;;;4863231;29;20256;-71
2022/11/27 03:29:43;;;;;;;39.38;24.85;;;6.80;99.90;;;;;;4858541;29;20037;-71
2022/11/27 03:32:08;;;;;;;41.35;25.30;;;6.80;99.90;;;;;;4844273;29;20556;-71
2022/11/27 03:34:34;;;;;;;43.40;26.98;;;6.80;99.90;;;;;;4858650;29;20033;-71
2022/11/27 03:37:00;;;;;;;50.15;28.45;;;6.80;99.90;;;;;;4859049;29;20053;-71
2022/11/27 03:39:27;;;;;;;49.15;28.38;;;6.80;99.90;;;;;;4852312;29;20741;-71
2022/11/27 03:42:12;;;;;;;52.63;28.42;;;6.80;99.90;;;;;;4859898;29;20104;-71
2022/11/27 03:44:40;;;;;;;47.90;28.00;;;6.80;99.90;;;;;;4860110;29;20542;-71
2022/11/27 03:47:35;;;;;;;52.35;27.92;;;6.70;99.90;;;;;;4837669;29;20459;-71
2022/11/27 03:50:15;;;;;;;47.50;27.52;;;6.70;99.90;;;;;;4853513;29;20064;-71
2022/11/27 03:53:31;;;;;;;50.65;28.48;;;6.70;99.90;;;;;;4860173;29;20057;-71
2022/11/27 03:56:20;;;;;;;52.80;28.58;;;6.70;99.90;;;;;;4767586;29;20071;-71
2022/11/27 03:59:03;;;;;;;56.03;29.80;;;6.70;99.90;;;;;;4771174;29;20040;-71
2022/11/27 04:01:30;;;;;;;46.97;27.63;;;6.70;99.90;;;;;;4833556;29;20046;-71
2022/11/27 04:03:55;;;;;;;58.95;30.20;;;6.70;99.90;;;;;;4856869;29;20152;-71
2022/11/27 04:06:21;;;;;;;49.00;27.65;;;6.80;99.90;;;;;;4857577;29;20042;-71
2022/11/27 04:08:47;;;;;;;50.80;29.58;;;6.80;99.90;;;;;;4858439;29;20850;-71
2022/11/27 04:11:13;;;;;;;50.78;29.58;;;6.80;99.90;;;;;;4847854;29;20041;-71
2022/11/27 04:13:39;;;;;;;52.38;28.30;;;6.80;99.90;;;;;;4860192;29;20079;-71
2022/11/27 04:16:05;;;;;;;69.97;30.92;;;6.80;99.90;;;;;;4859574;29;21270;-72
2022/11/27 04:18:31;;;;;;;53.17;28.98;;;6.80;99.90;;;;;;4860358;29;20061;-72
2022/11/27 04:20:56;;;;;;;51.30;28.45;;;6.80;99.90;;;;;;4860619;29;20056;-72
2022/11/27 04:23:22;;;;;;;57.55;28.65;;;6.70;99.90;;;;;;4858538;29;20045;-71
2022/11/27 04:25:48;;;;;;;60.03;29.27;;;6.80;99.90;;;;;;4860108;29;20053;-71
2022/11/27 04:28:16;;;;;;;56.90;30.60;;;6.80;99.90;;;;;;4858350;29;20152;-72
2022/11/27 04:30:42;;;;;;;50.90;28.83;;;6.80;99.90;;;;;;4859131;29;20053;-72
2022/11/27 04:33:08;;;;;;;49.05;27.98;;;6.80;99.90;;;;;;4859237;29;20067;-72
2022/11/27 04:35:33;;;;;;;46.25;27.63;;;6.80;99.90;;;;;;4859161;29;20038;-72
2022/11/27 04:37:59;;;;;;;54.10;27.17;;;6.90;99.90;;;;;;4861213;29;20053;-72
2022/11/27 04:40:24;;;;;;;68.43;29.83;;;6.80;99.90;;;;;;4852212;29;20045;-72
2022/11/27 04:42:50;;;;;;;75.18;30.17;;;6.80;99.90;;;;;;4858861;29;20073;-72
2022/11/27 04:45:16;;;;;;;50.92;28.08;;;6.80;99.90;;;;;;4862178;29;20052;-72
2022/11/27 04:47:42;;;;;;;50.10;27.83;;;6.80;99.90;;;;;;4863356;29;20106;-71
2022/11/27 04:50:08;;;;;;;49.63;28.13;;;6.80;99.90;;;;;;4864532;29;20052;-71
2022/11/27 04:52:34;;;;;;;70.07;29.35;;;6.80;99.90;;;;;;4861741;29;20212;-72
2022/11/27 04:54:59;;;;;;;53.83;28.02;;;6.80;99.90;;;;;;4862943;29;20037;-71
2022/11/27 04:57:25;;;;;;;45.90;26.77;;;6.80;99.90;;;;;;4864086;29;20144;-72
2022/11/27 04:59:51;;;;;;;53.78;27.27;;;6.80;99.90;;;;;;4862222;29;20110;-72
2022/11/27 05:02:16;;;;;;;46.60;26.88;;;6.70;99.90;;;;;;4859143;29;24690;-72
2022/11/27 05:04:42;;;;;;;43.65;24.05;;;6.60;99.90;;;;;;4863919;29;20036;-71
2022/11/27 05:07:08;;;;;;;41.55;24.42;;;6.60;99.90;;;;;;4862500;29;20101;-71
2022/11/27 05:09:33;;;;;;;42.08;23.58;;;6.50;99.90;;;;;;4864084;29;20550;-71
2022/11/27 05:11:59;;;;;;;39.50;23.95;;;6.60;99.90;;;;;;4855834;29;20037;-71
2022/11/27 05:14:28;;;;;;;47.95;25.38;;;6.70;99.90;;;;;;4844178;29;20397;-71
2022/11/27 05:16:56;;;;;;;42.10;24.67;;;6.70;99.90;;;;;;4864469;29;20057;-71
2022/11/27 05:19:24;;;;;;;38.95;21.50;;;6.70;99.90;;;;;;4859612;29;20395;-71
2022/11/27 05:21:51;;;;;;;35.85;22.05;;;6.70;99.90;;;;;;4860898;29;20408;-72
2022/11/27 05:24:18;;;;;;;33.75;19.83;;;6.70;99.90;;;;;;4866503;29;20124;-71
2022/11/27 05:26:44;;;;;;;31.85;19.23;;;6.70;99.90;;;;;;4863210;29;20101;-72
2022/11/27 05:29:11;;;;;;;31.52;19.08;;;6.60;99.90;;;;;;4863063;29;20037;-72
2022/11/27 05:31:37;;;;;;;32.47;20.10;;;6.60;99.90;;;;;;4858597;29;20129;-72
2022/11/27 05:34:03;;;;;;;28.83;18.52;;;6.60;99.90;;;;;;4858722;29;20041;-72
2022/11/27 05:36:29;;;;;;;27.92;16.90;;;6.50;99.90;;;;;;4862694;29;20459;-71
2022/11/27 05:38:55;;;;;;;31.80;19.52;;;6.50;99.90;;;;;;4864655;29;20041;-72
2022/11/27 05:41:21;;;;;;;32.88;18.80;;;6.50;99.90;;;;;;4856470;29;23507;-72
2022/11/27 05:43:47;;;;;;;30.17;18.27;;;6.60;99.90;;;;;;4859048;29;20068;-72
2022/11/27 05:46:15;;;;;;;31.38;18.52;;;6.60;99.90;;;;;;4862902;29;20072;-72
2022/11/27 05:48:41;;;;;;;32.13;18.05;;;6.60;99.90;;;;;;4861990;29;20061;-73
2022/11/27 05:51:07;;;;;;;33.22;18.73;;;6.70;99.90;;;;;;4863174;29;22781;-72
2022/11/27 05:53:33;;;;;;;29.40;17.90;;;6.70;99.90;;;;;;4861386;29;20065;-71
2022/11/27 05:56:10;;;;;;;28.85;17.17;;;6.70;99.90;;;;;;4861106;29;20057;-71
2022/11/27 05:58:37;;;;;;;34.33;19.17;;;6.70;99.90;;;;;;4862817;29;20487;-71
2022/11/27 06:01:03;;;;;;;31.38;17.92;;;6.70;99.90;;;;;;4860997;29;20131;-71
2022/11/27 06:03:29;;;;;;;73.20;43.08;;;6.70;99.90;;;;;;4863583;29;20064;-71
2022/11/27 06:05:54;;;;;;;35.45;20.83;;;6.80;99.90;;;;;;4865921;29;20037;-71
2022/11/27 06:08:20;;;;;;;35.50;24.50;;;6.70;99.90;;;;;;4859695;29;20037;-71
2022/11/27 06:10:47;;;;;;;27.88;17.60;;;6.70;99.90;;;;;;4850946;29;20120;-71
2022/11/27 06:13:13;;;;;;;26.83;15.90;;;6.60;99.90;;;;;;4857846;29;20033;-71
2022/11/27 06:15:39;;;;;;;26.88;15.20;;;6.60;99.90;;;;;;4864524;29;20096;-71
2022/11/27 06:18:05;;;;;;;26.35;15.88;;;6.60;99.90;;;;;;4861992;29;20048;-71
2022/11/27 06:20:31;;;;;;;25.95;16.50;;;6.70;99.90;;;;;;4864037;29;20125;-71
2022/11/27 06:22:57;;;;;;;27.40;16.05;;;6.70;99.90;;;;;;4860435;29;20053;-71
2022/11/27 06:25:22;;;;;;;26.48;15.60;;;6.70;99.90;;;;;;4861042;29;20042;-72
2022/11/27 06:27:48;;;;;;;25.52;15.68;;;6.70;99.90;;;;;;4863279;29;20045;-71
2022/11/27 06:30:14;;;;;;;24.95;15.75;;;6.70;99.90;;;;;;4858948;29;20036;-71
2022/11/27 06:32:40;;;;;;;23.50;15.23;;;6.70;99.90;;;;;;4857299;29;20128;-71
2022/11/27 06:35:06;;;;;;;27.00;16.25;;;6.60;99.90;;;;;;4857894;29;20124;-71
2022/11/27 06:37:31;;;;;;;27.63;16.15;;;6.70;99.90;;;;;;4860510;29;20056;-71
2022/11/27 06:39:57;;;;;;;24.50;15.18;;;6.70;99.90;;;;;;4856891;29;20400;-72
2022/11/27 06:42:23;;;;;;;25.17;15.45;;;6.70;99.90;;;;;;4855722;29;20066;-71
2022/11/27 06:44:48;;;;;;;25.42;15.32;;;6.70;99.90;;;;;;4857544;29;20494;-71
2022/11/27 06:47:14;;;;;;;24.42;15.27;;;6.70;99.90;;;;;;4857323;29;20053;-71
2022/11/27 06:49:39;;;;;;;26.23;15.07;;;6.70;99.90;;;;;;4861623;29;20055;-71
2022/11/27 06:52:05;;;;;;;24.80;15.20;;;6.60;99.90;;;;;;4860103;29;20052;-72
2022/11/27 06:54:30;;;;;;;68.05;40.15;;;6.50;99.90;;;;;;4861279;29;22585;-71
2022/11/27 06:56:57;;;;;;;184.65;114.32;;;6.60;99.90;;;;;;4858626;29;20052;-71
2022/11/27 06:59:23;;;;;;;40.72;23.90;;;6.60;99.90;;;;;;4858860;29;20030;-71
2022/11/27 07:01:49;;;;;;;36.08;23.17;;;6.60;99.90;;;;;;4858543;29;20042;-71
2022/11/27 07:04:15;;;;;;;57.10;47.33;;;6.40;99.90;;;;;;4861156;29;20041;-71
2022/11/27 07:06:41;;;;;;;29.63;19.58;;;6.40;99.90;;;;;;4858267;29;20064;-71
2022/11/27 07:09:08;;;;;;;31.30;18.10;;;6.50;99.90;;;;;;4862869;29;20487;-71
2022/11/27 07:11:34;;;;;;;31.42;18.08;;;6.50;99.90;;;;;;4856454;29;20044;-71
2022/11/27 07:14:02;;;;;;;28.67;17.52;;;6.50;99.90;;;;;;4856493;29;20037;-71
2022/11/27 07:16:30;;;;;;;28.50;16.40;;;6.50;99.90;;;;;;4862757;29;20060;-71
2022/11/27 07:19:05;;;;;;;33.22;16.60;;;6.60;99.90;;;;;;4839599;29;20033;-71
2022/11/27 07:21:31;;;;;;;30.63;17.58;;;6.60;99.90;;;;;;4858652;29;20100;-72
2022/11/27 07:23:57;;;;;;;33.25;18.33;;;6.60;99.90;;;;;;4860590;29;20665;-76
2022/11/27 07:26:26;;;;;;;33.25;18.05;;;6.60;99.90;;;;;;4857420;29;20128;-73
2022/11/27 07:28:52;;;;;;;32.22;18.30;;;6.70;99.90;;;;;;4860342;29;20068;-73
2022/11/27 07:31:20;;;;;;;29.33;17.48;;;6.70;99.90;;;;;;4854340;29;20127;-73
2022/11/27 07:33:47;;;;;;;31.42;17.98;;;6.70;99.90;;;;;;4857902;29;20029;-73
2022/11/27 07:36:24;;;;;;;32.40;18.23;;;6.80;99.90;;;;;;4840128;29;20037;-73
2022/11/27 07:38:50;;;;;;;34.75;19.23;;;6.90;99.90;;;;;;4860883;29;20117;-72
2022/11/27 07:41:16;;;;;;;31.17;17.35;;;6.90;99.90;;;;;;4860493;29;20537;-72
2022/11/27 07:43:43;;;;;;;31.02;17.85;;;6.90;99.90;;;;;;4853670;29;20475;-72
2022/11/27 07:46:18;;;;;;;34.40;18.38;;;6.90;99.90;;;;;;4852370;29;21732;-72
2022/11/27 07:48:43;;;;;;;45.53;27.42;;;6.90;99.90;;;;;;4855303;29;20471;-74
2022/11/27 07:51:12;;;;;;;37.88;22.42;;;6.90;99.90;;;;;;4853614;29;20048;-73
2022/11/27 07:53:39;;;;;;;35.53;19.15;;;6.90;99.90;;;;;;4863253;29;20069;-72
2022/11/27 07:56:06;;;;;;;39.67;21.90;;;6.90;99.90;;;;;;4852018;29;20068;-72
2022/11/27 07:58:32;;;;;;;34.70;19.67;;;6.90;99.90;;;;;;4857451;29;20059;-72
2022/11/27 08:00:57;;;;;;;36.03;19.58;;;6.90;99.90;;;;;;4856521;29;20762;-74
2022/11/27 08:03:23;;;;;;;36.38;18.08;;;7.00;99.90;;;;;;4860646;29;20048;-72
2022/11/27 08:05:49;;;;;;;34.42;18.67;;;7.00;99.90;;;;;;4855607;29;20536;-73
2022/11/27 08:08:14;;;;;;;32.15;17.98;;;7.00;99.90;;;;;;4854321;29;20040;-75
2022/11/27 08:10:41;;;;;;;34.97;19.23;;;7.00;99.90;;;;;;4851159;29;20037;-74
2022/11/27 08:13:07;;;;;;;40.40;19.88;;;7.10;99.90;;;;;;4836172;29;20045;-73
2022/11/27 08:15:33;;;;;;;34.33;18.75;;;7.10;99.90;;;;;;4854303;29;20708;-73
2022/11/27 08:17:58;;;;;;;36.70;18.27;;;7.00;99.90;;;;;;4859054;29;21026;-73
2022/11/27 08:20:24;;;;;;;40.10;20.40;;;7.00;99.90;;;;;;4861444;29;20050;-73
2022/11/27 08:22:50;;;;;;;29.77;17.55;;;7.00;99.90;;;;;;4841476;29;20512;-72
2022/11/27 08:25:16;;;;;;;35.72;18.70;;;7.00;99.90;;;;;;4855037;29;20125;-64
2022/11/27 08:27:42;;;;;;;37.63;19.50;;;7.00;99.90;;;;;;4851188;29;20084;-65
2022/11/27 08:30:08;;;;;;;39.30;21.25;;;7.00;99.90;;;;;;4850892;29;20401;-73
2022/11/27 08:32:36;;;;;;;44.10;23.20;;;7.00;99.90;;;;;;4856531;29;20040;-72
2022/11/27 08:35:02;;;;;;;33.85;20.88;;;7.00;99.90;;;;;;4850718;29;20074;-72
2022/11/27 08:37:27;;;;;;;36.80;19.25;;;7.00;99.90;;;;;;4854463;29;20053;-72
2022/11/27 08:39:53;;;;;;;38.33;19.77;;;7.10;99.90;;;;;;4854591;29;20123;-72
2022/11/27 08:42:19;;;;;;;38.85;19.77;;;7.10;99.90;;;;;;4845714;29;20052;-72
2022/11/27 08:44:45;;;;;;;38.53;20.38;;;7.10;99.90;;;;;;4848119;29;20029;-75
2022/11/27 08:47:11;;;;;;;38.65;19.25;;;7.10;99.90;;;;;;4850854;29;20048;-76
2022/11/27 08:49:36;;;;;;;59.03;36.50;;;7.10;99.90;;;;;;4856550;29;20029;-75
2022/11/27 08:52:02;;;;;;;43.03;23.25;;;7.20;99.90;;;;;;4850760;29;20056;-75
2022/11/27 08:54:27;;;;;;;42.45;19.95;;;7.20;99.90;;;;;;4853983;29;20045;-74
2022/11/27 08:56:53;;;;;;;39.00;19.58;;;7.20;99.90;;;;;;4852491;29;20056;-73
2022/11/27 08:59:19;;;;;;;40.97;21.13;;;7.20;99.90;;;;;;4850446;29;20045;-74
2022/11/27 09:01:44;;;;;;;40.15;21.38;;;7.20;99.90;;;;;;4852586;29;20049;-66
2022/11/27 09:04:10;;;;;;;42.05;20.08;;;7.20;99.90;;;;;;4848491;29;20116;-75
2022/11/27 09:06:35;;;;;;;41.00;19.15;;;7.30;99.90;;;;;;4851991;29;20048;-75
2022/11/27 09:09:04;;;;;;;42.40;19.75;;;7.30;99.90;;;;;;4855972;29;20140;-76
2022/11/27 09:11:31;;;;;;;39.72;19.92;;;7.30;99.90;;;;;;4858492;29;20543;-76
2022/11/27 09:14:01;;;;;;;40.40;19.55;;;7.30;99.90;;;;;;4854268;29;20084;-76
2022/11/27 09:16:29;;;;;;;40.58;19.67;;;7.30;99.90;;;;;;4850909;29;20048;-76
2022/11/27 09:18:55;;;;;;;46.45;22.85;;;7.20;99.90;;;;;;4857565;29;20048;-76
2022/11/27 09:21:23;;;;;;;41.72;19.85;;;7.20;99.90;;;;;;4853842;29;20065;-76
2022/11/27 09:23:57;;;;;;;46.63;20.63;;;7.20;99.90;;;;;;4856459;29;20049;-76
2022/11/27 09:26:24;;;;;;;42.50;20.70;;;7.20;99.90;;;;;;4855730;29;20064;-75
2022/11/27 09:28:51;;;;;;;47.45;20.88;;;7.20;99.90;;;;;;4851977;29;20029;-75
2022/11/27 09:31:18;;;;;;;53.53;21.83;;;7.10;99.90;;;;;;4860237;29;20436;-76
2022/11/27 09:33:44;;;;;;;49.25;20.75;;;7.20;99.90;;;;;;4860697;29;20029;-76
2022/11/27 09:36:12;;;;;;;46.95;21.17;;;7.10;99.90;;;;;;4858903;29;20044;-77
2022/11/27 09:38:38;;;;;;;41.75;20.38;;;7.20;99.90;;;;;;4865588;29;20057;-76
2022/11/27 09:41:10;;;;;;;42.03;19.25;;;7.20;99.90;;;;;;4857295;29;20483;-76
2022/11/27 09:43:48;;;;;;;41.67;19.10;;;7.20;99.90;;;;;;4845267;29;20096;-76
2022/11/27 09:46:23;;;;;;;36.95;18.85;;;7.20;99.90;;;;;;4849070;29;20447;-76
2022/11/27 09:48:50;;;;;;;40.35;19.02;;;7.30;99.90;;;;;;4862878;29;20056;-76
2022/11/27 09:51:38;;;;;;;38.75;18.55;;;7.30;99.90;;;;;;4864941;29;20037;-76
2022/11/27 09:54:19;;;;;;;35.13;17.65;;;7.30;99.90;;;;;;4861510;29;20045;-76
2022/11/27 09:56:49;;;;;;;38.45;18.30;;;7.30;99.90;;;;;;4851724;29;20127;-76
2022/11/27 09:59:18;;;;;;;32.47;17.05;;;7.30;99.90;;;;;;4857865;29;20150;-75
2022/11/27 10:01:44;;;;;;;32.92;17.60;;;7.30;99.90;;;;;;4853209;29;20032;-76
2022/11/27 10:04:13;;;;;;;34.22;18.20;;;7.40;99.90;;;;;;4867729;29;20150;-76
2022/11/27 10:06:57;;;;;;;35.50;17.27;;;7.40;99.90;;;;;;4861354;29;20499;-76
2022/11/27 10:09:37;;;;;;;36.13;17.63;;;7.40;99.90;;;;;;4861507;29;20040;-76
2022/11/27 10:12:11;;;;;;;40.35;18.33;;;7.40;99.90;;;;;;4861081;29;20116;-76
2022/11/27 10:14:46;;;;;;;35.60;17.90;;;7.50;99.90;;;;;;4858094;29;21368;-76
2022/11/27 10:17:25;;;;;;;35.22;17.77;;;7.50;99.90;;;;;;4859170;29;20049;-76
2022/11/27 10:20:18;;;;;;;32.85;17.08;;;7.40;99.90;;;;;;4847015;29;20037;-76
2022/11/27 10:23:00;;;;;;;31.45;16.15;;;7.40;99.90;;;;;;4857405;29;20052;-77
2022/11/27 10:25:35;;;;;;;35.55;17.17;;;7.50;99.90;;;;;;4858923;29;20122;-76
2022/11/27 10:28:07;;;;;;;35.08;16.77;;;7.40;99.90;;;;;;4860264;29;20410;-77
2022/11/27 10:30:38;;;;;;;30.73;16.55;;;7.50;99.90;;;;;;4837969;29;20569;-78
2022/11/27 10:33:16;;;;;;;35.00;16.27;;;7.50;99.90;;;;;;4861675;29;20587;-77
2022/11/27 10:35:43;;;;;;;39.22;16.88;;;7.50;99.90;;;;;;4852874;29;20044;-75
2022/11/27 10:38:15;;;;;;;30.48;16.52;;;7.50;99.90;;;;;;4854693;29;20051;-86
2022/11/27 10:41:03;;;;;;;32.45;16.20;;;7.60;99.90;;;;;;4853129;29;20048;-80
2022/11/27 10:43:29;;;;;;;32.80;15.77;;;7.50;99.90;;;;;;4857640;29;20439;-77
2022/11/27 10:46:08;;;;;;;31.92;16.33;;;7.50;99.90;;;;;;4856000;29;20053;-77
2022/11/27 10:48:33;;;;;;;31.33;16.35;;;7.40;99.90;;;;;;4853882;29;20037;-79
2022/11/27 10:51:00;;;;;;;33.60;17.13;;;7.40;99.90;;;;;;4859353;29;20056;-77
2022/11/27 10:53:32;;;;;;;53.08;18.50;;;7.40;99.90;;;;;;4860457;29;20202;-79
2022/11/27 10:56:04;;;;;;;;;;;7.50;99.90;;;;;;4862342;29;20037;-82
2022/11/27 10:58:45;;;;;;;32.60;15.27;;;7.60;99.90;;;;;;4849250;29;19927;-81
2022/11/27 11:01:17;;;;;;;33.40;16.75;;;7.60;99.90;;;;;;4858563;29;20041;-79
2022/11/27 11:03:42;;;;;;;;;;;7.70;99.90;;;;;;4866748;29;20053;-80
2022/11/27 11:06:21;;;;;;;27.83;15.60;;;7.60;99.90;;;;;;4857477;29;19993;-79
2022/11/27 11:08:46;;;;;;;28.17;14.45;;;7.60;99.90;;;;;;4861090;29;20045;-76
2022/11/27 11:11:12;;;;;;;27.88;15.73;;;7.60;99.90;;;;;;4859868;29;20047;-82
2022/11/27 11:13:44;;;;;;;30.85;16.20;;;7.60;99.90;;;;;;4860471;29;20453;-81
2022/11/27 11:16:10;;;;;;;28.88;15.93;;;7.60;99.90;;;;;;4854304;29;20044;-83
2022/11/27 11:18:48;;;;;;;30.05;15.43;;;7.60;99.90;;;;;;4851754;29;20635;-79
2022/11/27 11:21:31;;;;;;;29.73;15.15;;;7.60;99.90;;;;;;4854781;29;20083;-79
2022/11/27 11:24:06;;;;;;;30.35;16.33;;;7.70;99.90;;;;;;4857802;29;20100;-80
2022/11/27 11:26:54;;;;;;;23.58;13.88;;;7.60;99.90;;;;;;4845656;29;21194;-80
2022/11/27 11:29:38;;;;;;;27.98;15.18;;;7.70;99.90;;;;;;4860235;29;20033;-76
2022/11/27 11:32:11;;;;;;;26.77;14.60;;;7.70;99.90;;;;;;4828360;29;20033;-77
2022/11/27 11:34:44;;;;;;;25.35;14.02;;;7.80;99.90;;;;;;4852890;29;20041;-77
2022/11/27 11:37:40;;;;;;;27.10;15.02;;;7.80;99.90;;;;;;4843928;29;20075;-75
2022/11/27 11:40:20;;;;;;;30.23;15.60;;;7.90;99.90;;;;;;4855108;29;20178;-75
2022/11/27 11:43:01;;;;;;;28.58;15.57;;;8.00;99.90;;;;;;4851401;29;20033;-77
2022/11/27 11:45:29;;;;;;;30.77;15.65;;;8.00;99.90;;;;;;4850309;29;20028;-77
2022/11/27 11:47:57;;;;;;;27.73;14.45;;;8.00;99.90;;;;;;4853199;29;20379;-76
2022/11/27 11:50:42;;;;;;;24.70;13.50;;;8.00;99.90;;;;;;4845854;29;20029;-76
2022/11/27 11:53:22;;;;;;;28.50;15.48;;;7.90;99.90;;;;;;4851872;29;20069;-76
2022/11/27 11:56:00;;;;;;;27.40;15.38;;;7.90;99.90;;;;;;4856274;29;20188;-77
2022/11/27 11:58:51;;;;;;;27.73;14.85;;;8.00;99.90;;;;;;4848490;29;20103;-79
2022/11/27 12:01:26;;;;;;;30.13;15.27;;;8.00;99.90;;;;;;4853061;29;20135;-76
2022/11/27 12:04:22;;;;;;;23.95;15.05;;;8.00;99.90;;;;;;4852791;29;20037;-78
2022/11/27 12:07:20;;;;;;;25.15;15.35;;;7.90;99.90;;;;;;4847777;29;20052;-78
2022/11/27 12:09:52;;;;;;;28.42;15.52;;;7.90;99.90;;;;;;4852156;29;20366;-77
2022/11/27 12:12:17;;;;;;;27.35;15.48;;;7.90;99.90;;;;;;4853631;29;20152;-78
2022/11/27 12:14:55;;;;;;;28.85;15.70;;;7.80;99.90;;;;;;4850531;29;20045;-81
2022/11/27 12:17:39;;;;;;;29.48;15.45;;;7.80;99.90;;;;;;4838596;29;20048;-79
2022/11/27 12:20:23;;;;;;;29.83;15.80;;;7.90;99.90;;;;;;4860905;29;20501;-80
2022/11/27 12:23:23;;;;;;;30.15;15.32;;;7.90;99.90;;;;;;4877086;29;20080;-79
2022/11/27 12:26:09;;;;;;;27.73;16.40;;;8.00;99.90;;;;;;4879193;29;20588;-80
2022/11/27 12:28:57;;;;;;;28.27;16.13;;;8.00;99.90;;;;;;4880235;29;20040;-82
2022/11/27 12:31:23;;;;;;;28.58;15.90;;;8.00;99.90;;;;;;4873905;29;20043;-75
2022/11/27 12:34:10;;;;;;;30.48;15.70;;;8.00;99.90;;;;;;4867011;29;20068;-75
2022/11/27 12:37:05;;;;;;;28.67;16.20;;;8.00;99.90;;;;;;4867486;29;20048;-74
2022/11/27 12:39:58;;;;;;;26.15;14.90;;;8.00;99.90;;;;;;4863079;29;20049;-74
2022/11/27 12:42:34;;;;;;;26.30;15.27;;;8.10;99.90;;;;;;4865129;29;20582;-75
2022/11/27 12:45:04;;;;;;;24.45;13.93;;;8.10;99.90;;;;;;4866278;29;20043;-74
2022/11/27 12:48:19;;;;;;;26.13;14.27;;;8.10;99.90;;;;;;4865988;29;20037;-74
2022/11/27 12:51:10;;;;;;;39.47;15.40;;;8.00;99.90;;;;;;4846596;29;20262;-79
2022/11/27 12:53:39;;;;;;;33.67;14.77;;;8.10;99.90;;;;;;4877394;29;20029;-71
2022/11/27 12:56:23;;;;;;;26.08;14.70;;;8.10;99.90;;;;;;4874626;29;20115;-72